createdAt,value
2018-01-05T00:02:20.099Z,3.60
2018-01-05T00:04:47.665Z,3.35
2018-01-05T00:07:15.173Z,3.50
2018-01-05T00:09:43.456Z,3.10
2018-01-05T00:12:11.777Z,3.12
2018-01-05T00:14:39.302Z,3.03
2018-01-05T00:17:06.969Z,3.42
2018-01-05T00:19:34.488Z,3.22
2018-01-05T00:22:02.019Z,3.10
2018-01-05T00:24:29.521Z,2.72
2018-01-05T00:26:57.817Z,3.50
2018-01-05T00:29:26.089Z,3.35
2018-01-05T00:31:54.376Z,3.50
2018-01-05T00:34:21.882Z,2.90
2018-01-05T00:36:49.388Z,3.37
2018-01-05T00:39:17.669Z,3.55
2018-01-05T00:41:45.177Z,5.55
2018-01-05T00:44:12.730Z,3.05
2018-01-05T00:46:40.240Z,3.17
2018-01-05T00:49:08.533Z,3.92
2018-01-05T00:51:36.057Z,3.05
2018-01-05T00:54:03.557Z,3.72
2018-01-05T00:56:31.079Z,3.30
2018-01-05T00:58:58.587Z,2.80
2018-01-05T01:01:26.106Z,3.00
2018-01-05T01:03:54.372Z,3.15
2018-01-05T01:06:21.889Z,2.80
2018-01-05T01:08:49.401Z,3.45
2018-01-05T01:11:16.925Z,3.25
2018-01-05T01:13:44.450Z,2.78
2018-01-05T01:16:11.966Z,3.50
2018-01-05T01:18:39.503Z,3.40
2018-01-05T01:21:07.008Z,3.40
2018-01-05T01:23:35.315Z,3.37
2018-01-05T01:26:02.820Z,3.33
2018-01-05T01:28:30.348Z,3.37
2018-01-05T01:30:57.868Z,3.17
2018-01-05T01:33:25.374Z,3.50
2018-01-05T01:35:53.474Z,3.30
2018-01-05T01:38:20.986Z,3.60
2018-01-05T01:40:48.508Z,3.87
2018-01-05T01:43:16.771Z,3.20
2018-01-05T01:45:44.293Z,4.18
2018-01-05T01:48:11.793Z,2.60
2018-01-05T01:50:39.288Z,3.10
2018-01-05T01:53:06.806Z,3.45
2018-01-05T01:55:34.300Z,2.80
2018-01-05T01:58:01.837Z,3.05
2018-01-05T02:00:30.118Z,3.35
2018-01-05T02:02:58.420Z,2.90
2018-01-05T02:05:25.929Z,3.45
2018-01-05T02:07:53.440Z,2.70
2018-01-05T02:10:20.965Z,2.95
2018-01-05T02:12:48.464Z,3.10
2018-01-05T02:15:15.984Z,3.42
2018-01-05T02:17:43.497Z,3.80
2018-01-05T02:20:10.992Z,3.17
2018-01-05T02:22:38.509Z,3.00
2018-01-05T02:25:06.009Z,2.90
2018-01-05T02:27:33.528Z,2.40
2018-01-05T02:30:01.046Z,3.03
2018-01-05T02:32:29.324Z,3.30
2018-01-05T02:34:56.846Z,3.25
2018-01-05T02:37:24.348Z,2.70
2018-01-05T02:39:52.640Z,3.00
2018-01-05T02:42:20.908Z,2.33
2018-01-05T02:44:49.206Z,3.15
2018-01-05T02:47:16.718Z,3.33
2018-01-05T02:49:44.221Z,3.37
2018-01-05T02:52:11.750Z,2.90
2018-01-05T02:54:39.249Z,3.12
2018-01-05T02:57:06.799Z,2.95
2018-01-05T02:59:34.297Z,3.40
2018-01-05T03:02:01.797Z,3.65
2018-01-05T03:04:30.092Z,2.62
2018-01-05T03:06:58.352Z,3.15
2018-01-05T03:09:26.641Z,2.83
2018-01-05T03:11:54.905Z,2.65
2018-01-05T03:14:22.404Z,2.60
2018-01-05T03:16:49.925Z,2.55
2018-01-05T03:19:18.196Z,2.30
2018-01-05T03:21:46.496Z,2.50
2018-01-05T03:24:13.997Z,3.40
2018-01-05T03:26:43.136Z,2.78
2018-01-05T03:29:11.417Z,3.50
2018-01-05T03:31:39.684Z,3.22
2018-01-05T03:34:07.205Z,2.72
2018-01-05T03:36:34.720Z,2.20
2018-01-05T03:39:03.011Z,2.25
2018-01-05T03:41:30.533Z,2.47
2018-01-05T03:43:58.045Z,2.75
2018-01-05T03:46:25.564Z,2.67
2018-01-05T03:48:53.069Z,2.87
2018-01-05T03:51:20.587Z,3.05
2018-01-05T03:53:48.868Z,1.98
2018-01-05T03:56:17.138Z,2.55
2018-01-05T03:58:45.427Z,2.30
2018-01-05T04:01:13.688Z,2.22
2018-01-05T04:03:41.209Z,2.60
2018-01-05T04:06:08.708Z,2.45
2018-01-05T04:08:36.981Z,2.22
2018-01-05T04:11:04.491Z,2.80
2018-01-05T04:13:31.974Z,2.40
2018-01-05T04:15:59.485Z,3.20
2018-01-05T04:18:27.734Z,2.20
2018-01-05T04:20:56.047Z,2.53
2018-01-05T04:23:23.552Z,2.10
2018-01-05T04:25:51.048Z,2.08
2018-01-05T04:28:19.324Z,2.55
2018-01-05T04:30:46.834Z,1.98
2018-01-05T04:33:14.324Z,2.30
2018-01-05T04:35:41.838Z,2.37
2018-01-05T04:38:09.337Z,2.30
2018-01-05T04:40:36.841Z,2.22
2018-01-05T04:43:04.337Z,2.00
2018-01-05T04:45:31.856Z,1.90
2018-01-05T04:47:59.363Z,2.10
2018-01-05T04:50:26.856Z,2.28
2018-01-05T04:52:55.152Z,2.08
2018-01-05T04:55:22.641Z,2.00
2018-01-05T04:57:50.152Z,2.10
2018-01-05T05:00:18.429Z,1.87
2018-01-05T05:02:46.710Z,1.70
2018-01-05T05:05:14.973Z,1.62
2018-01-05T05:07:42.470Z,1.60
2018-01-05T05:10:09.985Z,3.17
2018-01-05T05:12:37.485Z,1.55
2018-01-05T05:15:04.996Z,1.48
2018-01-05T05:17:32.497Z,1.35
2018-01-05T05:20:00.014Z,1.55
2018-01-05T05:22:27.564Z,1.50
2018-01-05T05:24:55.058Z,3.53
2018-01-05T05:27:23.350Z,1.60
2018-01-05T05:29:50.880Z,1.58
2018-01-05T05:32:18.379Z,1.95
2018-01-05T05:34:45.892Z,1.52
2018-01-05T05:37:13.396Z,1.85
2018-01-05T05:39:40.938Z,1.15
2018-01-05T05:42:09.204Z,1.40
2018-01-05T05:44:37.500Z,1.73
2018-01-05T05:47:05.756Z,1.75
2018-01-05T05:49:33.252Z,1.55
2018-01-05T05:52:00.767Z,1.80
2018-01-05T05:54:28.270Z,1.35
2018-01-05T05:56:55.781Z,1.40
2018-01-05T05:59:23.289Z,1.70
2018-01-05T06:01:50.812Z,1.58
2018-01-05T06:04:18.321Z,1.15
2018-01-05T06:06:45.834Z,1.83
2018-01-05T06:09:14.115Z,1.75
2018-01-05T06:11:42.375Z,1.75
2018-01-05T06:14:09.884Z,1.65
2018-01-05T06:16:37.380Z,1.50
2018-01-05T06:19:04.878Z,1.20
2018-01-05T06:21:33.162Z,1.48
2018-01-05T06:24:01.439Z,1.70
2018-01-05T06:26:29.721Z,1.55
2018-01-05T06:28:57.229Z,1.70
2018-01-05T06:31:24.725Z,1.40
2018-01-05T06:33:53.008Z,1.70
2018-01-05T06:36:21.283Z,1.52
2018-01-05T06:38:49.578Z,1.58
2018-01-05T06:41:17.190Z,1.40
2018-01-05T06:43:44.692Z,1.73
2018-01-05T06:46:12.218Z,2.03
2018-01-05T06:48:39.724Z,1.67
2018-01-05T06:51:07.245Z,1.55
2018-01-05T06:53:34.783Z,1.70
2018-01-05T06:56:02.310Z,2.00
2018-01-05T06:58:29.848Z,1.75
2018-01-05T07:00:58.108Z,1.58
2018-01-05T07:03:25.618Z,1.50
2018-01-05T07:05:53.549Z,1.50
2018-01-05T07:08:21.836Z,1.55
2018-01-05T07:10:49.342Z,1.30
2018-01-05T07:13:16.847Z,1.80
2018-01-05T07:15:44.360Z,1.37
2018-01-05T07:18:12.009Z,1.30
2018-01-05T07:20:40.540Z,1.58
2018-01-05T07:23:09.091Z,1.30
2018-01-05T07:25:36.623Z,1.42
2018-01-05T07:28:04.291Z,1.60
2018-01-05T07:30:32.384Z,1.40
2018-01-05T07:33:00.102Z,1.27
2018-01-05T07:35:27.641Z,1.60
2018-01-05T07:37:55.925Z,1.40
2018-01-05T07:40:24.185Z,1.40
2018-01-05T07:42:51.715Z,1.55
2018-01-05T07:45:19.219Z,1.20
2018-01-05T07:47:47.473Z,1.12
2018-01-05T07:50:15.051Z,1.20
2018-01-05T07:52:42.525Z,1.12
2018-01-05T07:55:10.091Z,1.25
2018-01-05T07:57:38.356Z,1.30
2018-01-05T08:00:06.625Z,1.30
2018-01-05T08:02:34.136Z,1.05
2018-01-05T08:05:01.645Z,1.40
2018-01-05T08:07:29.161Z,1.20
2018-01-05T08:09:56.705Z,1.52
2018-01-05T08:12:24.350Z,1.10
2018-01-05T08:14:51.870Z,1.30
2018-01-05T08:17:19.373Z,1.10
2018-01-05T08:19:46.922Z,1.23
2018-01-05T08:22:15.187Z,1.02
2018-01-05T08:24:43.475Z,1.33
2018-01-05T08:27:11.742Z,0.93
2018-01-05T08:29:40.002Z,1.10
2018-01-05T08:32:07.568Z,1.23
2018-01-05T08:34:35.085Z,1.10
2018-01-05T08:37:02.605Z,1.00
2018-01-05T08:39:30.873Z,1.50
2018-01-05T08:41:59.136Z,1.12
2018-01-05T08:44:27.398Z,2.05
2018-01-05T08:46:54.949Z,1.00
2018-01-05T08:49:29.159Z,1.23
2018-01-05T08:51:56.699Z,1.10
2018-01-05T08:54:24.219Z,2.00
2018-01-05T08:56:51.728Z,1.10
2018-01-05T08:59:19.310Z,1.10
2018-01-05T09:01:47.594Z,1.23
2018-01-05T09:04:15.147Z,1.15
2018-01-05T09:06:42.684Z,1.30
2018-01-05T09:09:10.212Z,1.05
2018-01-05T09:11:38.481Z,0.82
2018-01-05T09:14:06.750Z,1.55
2018-01-05T09:16:34.305Z,0.93
2018-01-05T09:19:01.809Z,1.10
2018-01-05T09:21:29.318Z,1.33
2018-01-05T09:23:57.130Z,1.50
2018-01-05T09:26:24.638Z,1.00
2018-01-05T09:28:52.166Z,1.15
2018-01-05T09:31:19.719Z,1.50
2018-01-05T09:33:47.264Z,0.98
2018-01-05T09:36:15.010Z,1.10
2018-01-05T09:38:43.272Z,1.20
2018-01-05T09:41:10.790Z,1.10
2018-01-05T09:43:38.321Z,1.05
2018-01-05T09:46:06.580Z,1.35
2018-01-05T09:48:34.845Z,0.90
2018-01-05T09:51:02.369Z,1.62
2018-01-05T09:53:29.868Z,1.50
2018-01-05T09:55:57.444Z,1.17
2018-01-05T09:58:24.930Z,0.93
2018-01-05T10:00:52.441Z,1.00
2018-01-05T10:03:19.957Z,1.08
2018-01-05T10:05:47.464Z,1.10
2018-01-05T10:08:15.016Z,0.70
2018-01-05T10:10:43.312Z,1.10
2018-01-05T10:13:11.598Z,0.90
2018-01-05T10:15:39.890Z,0.75
2018-01-05T10:18:07.393Z,0.80
2018-01-05T10:20:34.905Z,1.37
2018-01-05T10:23:02.427Z,1.00
2018-01-05T10:25:29.929Z,1.85
2018-01-05T10:27:57.434Z,0.98
2018-01-05T10:30:24.994Z,1.10
2018-01-05T10:32:52.541Z,0.90
2018-01-05T10:35:20.065Z,0.70
2018-01-05T10:37:47.597Z,0.80
2018-01-05T10:40:15.894Z,0.90
2018-01-05T10:42:44.178Z,0.98
2018-01-05T10:45:11.677Z,0.85
2018-01-05T10:47:39.228Z,0.82
2018-01-05T10:50:06.748Z,1.05
2018-01-05T10:52:35.057Z,0.90
2018-01-05T10:55:02.576Z,1.33
2018-01-05T10:57:30.098Z,0.90
2018-01-05T10:59:57.621Z,1.05
2018-01-05T11:02:25.138Z,0.90
2018-01-05T11:04:52.652Z,0.80
2018-01-05T11:07:20.996Z,0.98
2018-01-05T11:09:48.536Z,1.10
2018-01-05T11:12:16.126Z,0.75
2018-01-05T11:14:44.424Z,0.93
2018-01-05T11:17:11.943Z,0.80
2018-01-05T11:19:39.486Z,1.10
2018-01-05T11:22:07.005Z,1.20
2018-01-05T11:24:34.531Z,0.90
2018-01-05T11:27:02.833Z,0.80
2018-01-05T11:29:30.349Z,0.82
2018-01-05T11:31:57.866Z,1.17
2018-01-05T11:34:25.398Z,1.10
2018-01-05T11:36:52.912Z,0.98
2018-01-05T11:39:20.449Z,0.90
2018-01-05T11:41:47.968Z,1.35
2018-01-05T11:44:16.238Z,0.95
2018-01-05T11:46:44.542Z,1.00
2018-01-05T11:49:12.054Z,1.10
2018-01-05T11:51:39.589Z,1.67
2018-01-05T11:54:07.108Z,0.90
2018-01-05T11:56:35.377Z,1.10
2018-01-05T11:59:03.667Z,1.00
2018-01-05T12:01:31.944Z,0.70
2018-01-05T12:04:00.185Z,1.30
2018-01-05T12:06:27.732Z,1.00
2018-01-05T12:08:57.953Z,1.10
2018-01-05T12:11:25.489Z,1.40
2018-01-05T12:13:53.005Z,1.12
2018-01-05T12:16:21.292Z,1.58
2018-01-05T12:18:49.602Z,1.15
2018-01-05T12:21:17.113Z,0.90
2018-01-05T12:23:44.656Z,1.05
2018-01-05T12:26:12.174Z,0.90
2018-01-05T12:28:39.699Z,1.10
2018-01-05T12:31:08.082Z,1.35
2018-01-05T12:33:35.627Z,1.10
2018-01-05T12:36:03.161Z,1.00
2018-01-05T12:38:30.670Z,1.17
2018-01-05T12:40:58.973Z,2.50
2018-01-05T12:43:26.480Z,3.40
2018-01-05T12:45:55.346Z,2.03
2018-01-05T12:48:22.900Z,1.12
2018-01-05T12:50:50.406Z,0.82
2018-01-05T12:53:17.933Z,1.20
2018-01-05T12:55:45.426Z,1.00
2018-01-05T12:58:12.921Z,1.10
2018-01-05T13:00:40.441Z,1.00
2018-01-05T13:03:07.947Z,1.00
2018-01-05T13:05:36.231Z,0.98
2018-01-05T13:08:03.760Z,1.15
2018-01-05T13:10:32.029Z,0.82
2018-01-05T13:13:00.317Z,1.20
2018-01-05T13:15:28.598Z,0.85
2018-01-05T13:17:56.135Z,0.90
2018-01-05T13:20:23.648Z,0.75
2018-01-05T13:22:51.269Z,0.90
2018-01-05T13:25:19.534Z,0.65
2018-01-05T13:27:57.438Z,0.70
2018-01-05T13:30:24.968Z,0.80
2018-01-05T13:32:52.485Z,0.70
2018-01-05T13:35:19.997Z,0.70
2018-01-05T13:37:47.527Z,0.73
2018-01-05T13:40:15.069Z,0.60
2018-01-05T13:42:42.548Z,0.70
2018-01-05T13:45:10.069Z,0.70
2018-01-05T13:47:38.340Z,0.93
2018-01-05T13:50:06.650Z,0.80
2018-01-05T13:52:34.152Z,0.73
2018-01-05T13:55:01.698Z,0.70
2018-01-05T13:57:29.230Z,0.90
2018-01-05T13:59:56.849Z,0.80
2018-01-05T14:02:24.981Z,0.95
2018-01-05T14:04:52.518Z,0.90
2018-01-05T14:07:20.106Z,0.80
2018-01-05T14:09:47.649Z,0.80
2018-01-05T14:12:15.949Z,0.80
2018-01-05T14:14:43.483Z,0.90
2018-01-05T14:17:11.010Z,0.70
2018-01-05T14:19:38.575Z,0.80
2018-01-05T14:22:06.865Z,0.98
2018-01-05T14:24:34.434Z,0.90
2018-01-05T14:27:01.959Z,0.80
2018-01-05T14:29:30.999Z,0.80
2018-01-05T14:31:58.555Z,0.60
2018-01-05T14:34:26.080Z,0.70
2018-01-05T14:36:54.427Z,0.82
2018-01-05T14:39:21.962Z,0.93
2018-01-05T14:41:49.475Z,1.00
2018-01-05T14:44:17.013Z,0.98
2018-01-05T14:46:44.565Z,0.80
2018-01-05T14:49:12.843Z,1.00
2018-01-05T14:51:40.374Z,0.80
2018-01-05T14:54:07.882Z,1.20
2018-01-05T14:56:35.412Z,0.90
2018-01-05T14:59:02.941Z,0.90
2018-01-05T15:01:30.445Z,1.10
2018-01-05T15:03:57.996Z,1.98
2018-01-05T15:06:25.529Z,1.37
2018-01-05T15:08:53.168Z,1.30
2018-01-05T15:11:20.714Z,1.40
2018-01-05T15:13:48.226Z,1.40
2018-01-05T15:16:16.624Z,2.17
2018-01-05T15:18:44.139Z,1.80
2018-01-05T15:21:11.645Z,1.20
2018-01-05T15:23:39.169Z,2.17
2018-01-05T15:26:06.677Z,1.45
2018-01-05T15:28:34.187Z,1.20
2018-01-05T15:31:01.720Z,1.62
2018-01-05T15:33:29.995Z,1.73
2018-01-05T15:35:58.301Z,1.65
2018-01-05T15:38:25.812Z,2.03
2018-01-05T15:40:53.350Z,1.85
2018-01-05T15:43:20.847Z,2.22
2018-01-05T15:45:48.393Z,3.25
2018-01-05T15:48:15.936Z,2.40
2018-01-05T15:50:43.448Z,2.58
2018-01-05T15:53:10.977Z,2.90
2018-01-05T15:55:38.490Z,2.75
2018-01-05T15:58:06.014Z,1.60
2018-01-05T16:00:34.312Z,1.80
2018-01-05T16:03:01.881Z,1.55
2018-01-05T16:05:29.401Z,0.90
2018-01-05T16:07:56.920Z,0.90
2018-01-05T16:10:24.445Z,0.80
2018-01-05T16:12:51.971Z,0.70
2018-01-05T16:15:19.473Z,0.90
2018-01-05T16:17:46.997Z,0.70
2018-01-05T16:20:14.493Z,0.50
2018-01-05T16:22:41.984Z,0.80
2018-01-05T16:25:09.493Z,0.88
2018-01-05T16:27:36.994Z,1.60
2018-01-05T16:30:04.527Z,1.17
2018-01-05T16:32:32.021Z,1.00
2018-01-05T16:34:59.528Z,2.00
2018-01-05T16:37:27.821Z,1.23
2018-01-05T16:39:55.321Z,1.30
2018-01-05T16:42:22.841Z,1.33
2018-01-05T16:44:50.350Z,1.10
2018-01-05T16:47:17.848Z,1.00
2018-01-05T16:49:46.136Z,1.80
2018-01-05T16:52:13.629Z,2.35
2018-01-05T16:54:41.145Z,1.70
2018-01-05T16:57:09.413Z,2.10
2018-01-05T16:59:37.689Z,1.37
2018-01-05T17:02:05.981Z,1.87
2018-01-05T17:04:33.481Z,4.20
2018-01-05T17:07:00.996Z,2.10
2018-01-05T17:09:29.284Z,1.73
2018-01-05T17:11:56.792Z,1.95
2018-01-05T17:14:24.285Z,4.18
2018-01-05T17:16:51.793Z,5.85
2018-01-05T17:19:19.286Z,1.95
2018-01-05T17:21:46.782Z,1.20
2018-01-05T17:24:14.288Z,1.40
2018-01-05T17:26:41.792Z,2.00
2018-01-05T17:29:09.284Z,2.87
2018-01-05T17:31:36.802Z,4.35
2018-01-05T17:34:05.065Z,3.35
2018-01-05T17:36:33.360Z,3.05
2018-01-05T17:39:01.639Z,2.25
2018-01-05T17:41:29.913Z,1.52
2018-01-05T17:43:58.201Z,1.60
2018-01-05T17:46:25.688Z,1.70
2018-01-05T17:48:53.206Z,2.60
2018-01-05T17:51:21.473Z,2.20
2018-01-05T17:53:48.993Z,1.77
2018-01-05T17:56:16.501Z,1.50
2018-01-05T17:58:44.771Z,1.10
2018-01-05T18:01:13.069Z,1.45
2018-01-05T18:03:40.657Z,2.28
2018-01-05T18:06:08.173Z,1.35
2018-01-05T18:08:36.446Z,1.40
2018-01-05T18:11:04.729Z,2.65
2018-01-05T18:13:33.025Z,3.50
2018-01-05T18:16:00.529Z,1.80
2018-01-05T18:18:28.025Z,1.50
2018-01-05T18:20:56.328Z,1.73
2018-01-05T18:23:23.838Z,1.90
2018-01-05T18:25:55.309Z,2.80
2018-01-05T18:28:22.912Z,3.40
2018-01-05T18:30:50.414Z,2.45
2018-01-05T18:33:17.941Z,2.65
2018-01-05T18:35:45.452Z,2.37
2018-01-05T18:38:13.717Z,2.03
2018-01-05T18:40:41.237Z,2.65
2018-01-05T18:43:08.771Z,2.83
2018-01-05T18:45:36.243Z,2.95
2018-01-05T18:48:03.772Z,2.58
2018-01-05T18:50:32.044Z,2.10
2018-01-05T18:52:59.686Z,2.78
2018-01-05T18:55:27.208Z,2.33
2018-01-05T18:57:55.759Z,3.25
2018-01-05T19:00:27.537Z,2.97
2018-01-05T19:02:55.037Z,3.92
2018-01-05T19:05:32.926Z,3.37
2018-01-05T19:08:00.429Z,3.92
2018-01-05T19:10:28.726Z,2.90
2018-01-05T19:12:56.235Z,3.65
2018-01-05T19:15:23.756Z,3.50
2018-01-05T19:17:52.220Z,3.05
2018-01-05T19:20:20.486Z,3.85
2018-01-05T19:22:51.080Z,4.80
2018-01-05T19:25:18.572Z,4.28
2018-01-05T19:27:46.838Z,3.35
2018-01-05T19:30:19.444Z,3.42
2018-01-05T19:32:47.748Z,3.40
2018-01-05T19:35:15.282Z,3.50
2018-01-05T19:37:42.816Z,4.07
2018-01-05T19:40:10.347Z,4.75
2018-01-05T19:42:37.850Z,4.93
2018-01-05T19:45:06.116Z,4.32
2018-01-05T19:47:33.984Z,3.97
2018-01-05T19:50:01.486Z,4.32
2018-01-05T19:52:33.473Z,5.50
2018-01-05T19:55:02.141Z,7.20
2018-01-05T19:57:29.665Z,6.18
2018-01-05T20:00:03.209Z,4.90
2018-01-05T20:02:35.445Z,5.97
2018-01-05T20:05:03.721Z,5.05
2018-01-05T20:07:33.701Z,4.87
2018-01-05T20:10:01.196Z,4.00
2018-01-05T20:12:34.242Z,5.18
2018-01-05T20:15:01.773Z,4.68
2018-01-05T20:17:29.278Z,3.62
2018-01-05T20:19:56.813Z,5.05
2018-01-05T20:22:24.307Z,5.00
2018-01-05T20:24:52.581Z,4.82
2018-01-05T20:27:21.929Z,4.53
2018-01-05T20:29:51.467Z,5.82
2018-01-05T20:32:21.846Z,5.80
2018-01-05T20:34:49.365Z,4.32
2018-01-05T20:37:18.274Z,5.35
2018-01-05T20:39:45.898Z,4.87
2018-01-05T20:42:15.344Z,5.97
2018-01-05T20:44:43.636Z,6.80
2018-01-05T20:47:14.509Z,5.62
2018-01-05T20:49:43.061Z,5.75
2018-01-05T20:52:11.341Z,5.70
2018-01-05T20:54:38.837Z,5.47
2018-01-05T20:57:06.356Z,5.30
2018-01-05T20:59:34.689Z,4.35
2018-01-05T21:02:02.210Z,5.00
2018-01-05T21:04:30.742Z,5.00
2018-01-05T21:06:58.268Z,4.62
2018-01-05T21:09:25.765Z,4.10
2018-01-05T21:11:53.261Z,4.78
2018-01-05T21:14:20.848Z,3.92
2018-01-05T21:16:50.986Z,3.28
2018-01-05T21:19:18.506Z,3.42
2018-01-05T21:21:46.018Z,3.05
2018-01-05T21:24:13.530Z,2.50
2018-01-05T21:26:41.040Z,2.97
2018-01-05T21:29:08.566Z,2.58
2018-01-05T21:31:37.718Z,2.15
2018-01-05T21:34:05.996Z,1.80
2018-01-05T21:36:34.285Z,2.12
2018-01-05T21:39:02.575Z,1.95
2018-01-05T21:41:30.108Z,1.90
2018-01-05T21:43:57.647Z,2.05
2018-01-05T21:46:25.152Z,2.83
2018-01-05T21:48:52.716Z,3.10
2018-01-05T21:51:20.228Z,2.83
2018-01-05T21:53:47.757Z,2.85
2018-01-05T21:56:16.040Z,2.28
2018-01-05T21:58:43.559Z,2.45
2018-01-05T22:01:11.820Z,1.98
2018-01-05T22:03:39.322Z,1.62
2018-01-05T22:06:06.846Z,1.62
2018-01-05T22:08:35.102Z,1.42
2018-01-05T22:11:02.613Z,1.52
2018-01-05T22:13:30.588Z,1.33
2018-01-05T22:15:58.085Z,1.35
2018-01-05T22:18:25.578Z,1.45
2018-01-05T22:20:53.856Z,1.35
2018-01-05T22:23:22.137Z,1.42
2018-01-05T22:25:49.661Z,1.42
2018-01-05T22:28:17.152Z,1.60
2018-01-05T22:30:46.035Z,1.70
2018-01-05T22:33:14.344Z,1.70
2018-01-05T22:35:41.821Z,1.40
2018-01-05T22:38:09.340Z,1.40
2018-01-05T22:40:37.608Z,1.70
2018-01-05T22:43:06.227Z,1.40
2018-01-05T22:45:33.768Z,1.50
2018-01-05T22:48:02.032Z,1.73
2018-01-05T22:50:30.326Z,1.08
2018-01-05T22:52:57.838Z,1.30
2018-01-05T22:55:25.357Z,1.40
2018-01-05T22:57:52.866Z,1.30
2018-01-05T23:00:21.343Z,1.02
2018-01-05T23:02:48.848Z,1.20
2018-01-05T23:05:16.349Z,0.93
2018-01-05T23:07:53.852Z,1.00
2018-01-05T23:10:21.362Z,1.10
2018-01-05T23:12:49.381Z,1.10
2018-01-05T23:15:16.902Z,1.20
2018-01-05T23:17:44.402Z,1.00
2018-01-05T23:20:12.921Z,1.10
2018-01-05T23:22:41.228Z,1.17
2018-01-05T23:25:08.735Z,1.10
2018-01-05T23:27:36.265Z,0.80
2018-01-05T23:30:03.776Z,0.95
2018-01-05T23:32:32.070Z,1.10
2018-01-05T23:34:59.585Z,1.00
2018-01-05T23:37:27.084Z,0.90
2018-01-05T23:40:01.893Z,1.30
2018-01-05T23:42:29.406Z,1.10
2018-01-05T23:44:56.906Z,1.23
2018-01-05T23:47:24.429Z,1.02
2018-01-05T23:49:51.924Z,0.90
2018-01-05T23:52:19.435Z,0.90
2018-01-05T23:54:46.962Z,0.90
2018-01-05T23:57:15.237Z,1.12
2018-01-05T23:59:43.524Z,1.02
